Time;durP1;ratioP1;P1;durP2;ratioP2;P2;SDS_P1;SDS_P2;PMS_P1;PMS_P2;Temp;Humidity;BMP_temperature;BMP_pressure;BME280_temperature;BME280_humidity;BME280_pressure;Samples;Min_cycle;Max_cycle;Signal;HPM_P1;HPM_P2
2021/11/11 00:15:21;;;;;;;17.60;10.27;;;;;;;12.98;81.21;99432.50;5007337;28;20029;-95
2021/11/11 00:17:48;;;;;;;20.48;10.48;;;;;;;13.04;80.70;99435.00;5021749;28;20073;-94
2021/11/11 00:20:19;;;;;;;19.75;10.20;;;;;;;13.08;80.69;99443.81;5019490;28;20046;-95
2021/11/11 00:23:00;;;;;;;17.70;9.75;;;;;;;13.07;81.31;99466.97;5019459;28;20054;-95
2021/11/11 00:25:55;;;;;;;;;;;;;;;;;;;;;
2021/11/11 00:39:32;;;;;;;19.70;9.18;;;;;;;12.93;81.64;99424.63;4824656;29;20063;-96
2021/11/11 00:42:00;;;;;;;17.48;9.80;;;;;;;12.95;81.93;99425.44;4838825;29;20036;-95
2021/11/11 00:44:28;;;;;;;15.82;9.05;;;;;;;12.80;82.22;99401.84;4904096;29;20052;-96
2021/11/11 00:47:03;;;;;;;16.80;8.98;;;;;;;12.90;82.02;99402.44;4916101;29;20048;-94
2021/11/11 00:49:40;;;;;;;19.02;9.73;;;;;;;12.82;82.31;99385.78;4923877;29;20044;-95
2021/11/11 00:52:07;;;;;;;16.95;8.88;;;;;;;12.85;82.02;99402.56;4927547;29;20040;-95
2021/11/11 00:54:37;;;;;;;21.23;9.57;;;;;;;12.85;82.68;99426.59;4923395;29;20048;-94
2021/11/11 00:57:24;;;;;;;19.83;9.60;;;;;;;12.71;82.57;99394.06;4910815;29;20403;-96
2021/11/11 00:59:59;;;;;;;22.63;10.02;;;;;;;12.65;82.99;99391.56;4983727;28;20127;-96
2021/11/11 01:02:47;;;;;;;18.50;8.90;;;;;;;12.62;83.30;99381.84;4984689;28;20103;-96
2021/11/11 01:05:14;;;;;;;18.52;9.68;;;;;;;12.63;83.27;99385.38;4998418;28;20409;-95
2021/11/11 01:07:40;;;;;;;18.42;9.77;;;;;;;12.62;83.44;99384.50;5011581;28;20127;-94
2021/11/11 01:10:14;;;;;;;16.23;8.60;;;;;;;12.56;83.70;99381.13;5057333;28;20530;-95
2021/11/11 01:12:43;;;;;;;18.08;9.18;;;;;;;12.58;83.99;99380.16;5091418;28;20092;-94
2021/11/11 01:15:11;;;;;;;15.73;8.53;;;;;;;12.52;83.82;99366.97;5138967;27;20086;-94
2021/11/11 01:17:38;;;;;;;18.95;9.20;;;;;;;12.63;83.63;99386.25;5144179;27;20043;-94
2021/11/11 01:20:05;;;;;;;16.80;10.27;;;;;;;12.69;83.58;99395.91;5145770;27;20488;-93
2021/11/11 01:22:31;;;;;;;17.73;8.60;;;;;;;12.62;83.81;99379.19;5141898;27;20046;-95
2021/11/11 01:24:58;;;;;;;17.25;9.07;;;;;;;12.56;83.82;99354.44;5147642;27;20043;-96
2021/11/11 01:27:24;;;;;;;18.20;9.63;;;;;;;12.84;82.83;99371.47;5146553;27;20055;-93
2021/11/11 01:29:52;;;;;;;17.60;8.50;;;;;;;12.77;82.67;99364.53;5164161;27;20058;-94
2021/11/11 01:32:18;;;;;;;19.85;8.90;;;;;;;12.74;82.92;99344.16;5191287;27;20513;-96
2021/11/11 01:34:45;;;;;;;16.38;8.73;;;;;;;12.77;82.37;99345.84;5190270;27;20035;-95
2021/11/11 01:37:11;;;;;;;13.73;7.53;;;;;;;12.89;81.52;99356.22;5189248;27;20054;-96
2021/11/11 01:39:37;;;;;;;15.85;7.97;;;;;;;12.94;82.17;99375.63;5191790;27;20121;-95
2021/11/11 01:42:04;;;;;;;13.73;7.70;;;;;;;12.89;82.27;99374.03;5192069;27;20050;-96
2021/11/11 01:44:30;;;;;;;17.42;9.38;;;;;;;12.85;82.19;99383.03;5191572;27;20046;-96
2021/11/11 01:46:58;;;;;;;16.40;8.05;;;;;;;12.82;82.12;99384.00;5193896;27;20048;-96
2021/11/11 01:49:24;;;;;;;17.00;8.13;;;;;;;12.79;82.49;99375.19;5193056;27;20470;-96
2021/11/11 01:51:52;;;;;;;14.27;7.65;;;;;;;12.79;82.48;99386.72;5193165;27;20046;-96
2021/11/11 01:54:19;;;;;;;15.93;7.55;;;;;;;12.73;83.56;99382.44;5194554;27;20093;-95
2021/11/11 01:56:46;;;;;;;19.63;9.18;;;;;;;12.85;81.88;99399.03;5192536;27;20098;-95
2021/11/11 01:59:15;;;;;;;16.13;8.23;;;;;;;13.01;81.72;99407.50;5191719;27;20039;-95
2021/11/11 02:01:44;;;;;;;16.10;9.50;;;;;;;12.76;82.38;99392.16;5193127;27;20046;-96
2021/11/11 02:04:11;;;;;;;;;;;;;;;12.84;82.86;99440.00;5191619;27;20568;-96
2021/11/11 02:06:41;;;;;;;19.00;9.25;;;;;;;12.54;83.25;99400.69;5192240;27;19973;-96
2021/11/11 02:09:07;;;;;;;21.30;10.63;;;;;;;12.50;83.16;99404.34;5191271;27;20042;-94
2021/11/11 02:11:36;;;;;;;19.83;9.48;;;;;;;12.41;83.61;99393.06;5187843;27;20042;-96
2021/11/11 02:14:02;;;;;;;21.50;9.70;;;;;;;12.36;84.00;99381.59;5188440;27;20391;-95
2021/11/11 02:16:29;;;;;;;17.13;9.63;;;;;;;12.47;83.97;99406.22;5187432;27;20042;-96
2021/11/11 02:18:55;;;;;;;18.23;9.43;;;;;;;12.49;83.97;99407.06;5190851;27;20042;-96
2021/11/11 02:21:23;;;;;;;17.20;9.20;;;;;;;12.43;83.56;99389.44;5171150;27;20049;-96
2021/11/11 02:23:49;;;;;;;19.90;9.98;;;;;;;12.46;83.20;99392.00;5168426;27;20042;-96
2021/11/11 02:26:15;;;;;;;17.60;8.73;;;;;;;12.44;83.69;99395.63;5169970;27;20129;-95
2021/11/11 02:28:41;;;;;;;18.02;9.73;;;;;;;12.44;83.56;99399.16;5168728;27;20051;-95
2021/11/11 02:31:07;;;;;;;18.70;9.43;;;;;;;12.62;82.98;99405.84;5168681;27;20062;-96
2021/11/11 02:33:34;;;;;;;17.83;9.35;;;;;;;12.49;83.28;99386.59;5169778;27;20070;-94
2021/11/11 02:36:00;;;;;;;20.20;9.70;;;;;;;12.59;83.20;99391.72;5177951;27;20287;-95
2021/11/11 02:38:28;;;;;;;19.48;9.88;;;;;;;12.55;83.42;99382.88;5187822;27;20042;-95
2021/11/11 02:40:54;;;;;;;21.00;9.70;;;;;;;12.59;83.20;99391.72;5169417;27;20510;-95
2021/11/11 02:43:21;;;;;;;19.20;10.32;;;;;;;12.65;82.96;99403.09;5184172;27;20042;-95
2021/11/11 02:45:49;;;;;;;15.65;8.15;;;;;;;12.72;83.40;99409.16;5185489;27;20106;-94
2021/11/11 02:48:22;;;;;;;18.00;8.52;;;;;;;12.52;83.38;99375.84;5185951;27;20050;-93
2021/11/11 02:50:51;;;;;;;17.00;8.40;;;;;;;12.74;83.46;99402.84;5190937;27;20035;-94
2021/11/11 02:53:18;;;;;;;20.00;9.35;;;;;;;12.52;83.33;99375.84;5187168;27;20403;-95
2021/11/11 02:55:46;;;;;;;18.67;10.20;;;;;;;12.56;84.03;99383.78;5186966;27;20042;-96
2021/11/11 02:58:12;;;;;;;18.67;9.85;;;;;;;12.40;84.69;99375.28;5180483;27;20514;-95
2021/11/11 03:00:43;;;;;;;18.55;9.10;;;;;;;12.37;85.03;99376.22;5188067;27;20042;-96
2021/11/11 03:03:09;;;;;;;19.58;9.43;;;;;;;12.47;85.56;99400.88;5183534;27;20034;-96
2021/11/11 03:05:35;;;;;;;17.83;9.57;;;;;;;12.31;85.49;99382.59;5179681;27;20430;-95
2021/11/11 03:08:02;;;;;;;16.67;8.60;;;;;;;12.34;86.04;99379.00;5172811;27;20046;-93
2021/11/11 03:10:29;;;;;;;16.70;9.35;;;;;;;12.32;86.84;99386.16;5182949;27;20043;-94
2021/11/11 03:12:59;;;;;;;16.80;8.80;;;;;;;12.18;87.39;99378.47;5163690;27;20042;-95
2021/11/11 03:15:27;;;;;;;19.92;9.50;;;;;;;12.27;88.32;99398.69;5163943;27;20043;-94
2021/11/11 03:17:54;;;;;;;18.97;9.40;;;;;;;12.06;88.93;99370.78;5164765;27;20042;-96
2021/11/11 03:20:21;;;;;;;19.00;9.82;;;;;;;12.01;89.23;99373.53;5180923;27;20436;-96
2021/11/11 03:22:47;;;;;;;19.58;9.77;;;;;;;12.03;89.53;99373.50;5176061;27;20049;-94
2021/11/11 03:25:16;;;;;;;17.75;9.43;;;;;;;11.97;89.85;99371.88;5175159;27;20499;-94
2021/11/11 03:27:42;;;;;;;17.07;9.60;;;;;;;11.95;90.45;99360.38;5185494;27;20046;-94
2021/11/11 03:30:13;;;;;;;23.27;10.48;;;;;;;12.11;90.52;99375.06;5182451;27;20038;-96
2021/11/11 03:32:40;;;;;;;17.75;8.93;;;;;;;12.12;89.90;99365.28;5172493;27;20034;-96
2021/11/11 03:35:07;;;;;;;18.13;9.45;;;;;;;12.07;90.22;99351.19;5164132;27;20059;-94
2021/11/11 03:37:33;;;;;;;17.73;9.43;;;;;;;12.10;89.66;99348.44;5174490;27;20387;-96
2021/11/11 03:39:59;;;;;;;18.70;9.80;;;;;;;12.15;90.63;99351.03;5164280;27;20066;-95
2021/11/11 03:42:26;;;;;;;19.15;9.38;;;;;;;11.99;91.46;99332.72;5165018;27;20053;-96
2021/11/11 03:44:52;;;;;;;18.73;9.73;;;;;;;12.09;91.75;99354.69;5163253;27;20050;-94
2021/11/11 03:47:21;;;;;;;20.45;8.75;;;;;;;12.02;91.12;99353.09;5166184;27;20515;-96
2021/11/11 03:49:49;;;;;;;18.27;8.85;;;;;;;11.99;91.43;99340.72;5168671;27;20062;-95
2021/11/11 03:52:17;;;;;;;19.90;9.57;;;;;;;12.05;90.38;99337.88;5170626;27;20042;-96
2021/11/11 03:54:48;;;;;;;20.60;9.40;;;;;;;12.00;90.89;99336.25;5172554;27;20063;-95
2021/11/11 03:57:16;;;;;;;18.38;9.07;;;;;;;12.12;90.76;99366.16;5177104;27;20050;-96
2021/11/11 03:59:53;;;;;;;17.77;8.57;;;;;;;11.91;91.24;99340.88;5176999;27;20037;-96
2021/11/11 04:02:44;;;;;;;18.00;8.48;;;;;;;11.92;92.55;99342.63;5177351;27;20295;-96
2021/11/11 04:05:17;;;;;;;18.17;9.40;;;;;;;11.84;94.43;99365.91;5175177;27;20043;-96
2021/11/11 04:07:53;;;;;;;17.77;9.30;;;;;;;11.85;95.51;99378.31;5176242;27;20039;-96
2021/11/11 04:10:30;;;;;;;17.80;9.00;;;;;;;11.78;95.70;99376.69;5177909;27;20098;-96
2021/11/11 04:12:57;;;;;;;18.98;9.52;;;;;;;11.84;96.20;99397.88;5176857;27;20043;-96
2021/11/11 04:15:24;;;;;;;19.23;9.90;;;;;;;11.72;97.37;99384.81;5175206;27;20039;-96
2021/11/11 04:17:55;;;;;;;19.60;9.90;;;;;;;11.75;97.49;99400.72;5171277;27;20050;-96
2021/11/11 04:20:28;;;;;;;24.75;11.40;;;;;;;11.93;98.19;99434.16;5177205;27;20150;-96
2021/11/11 04:22:55;;;;;;;21.67;10.77;;;;;;;11.75;97.87;99398.06;5173811;27;20125;-96
2021/11/11 05:08:36;;;;;;;27.63;12.70;;;;;;;11.27;95.48;99368.91;6242791;22;1448251;-95
2021/11/11 05:11:03;;;;;;;30.52;14.38;;;;;;;11.22;96.01;99358.34;6264473;22;20016;-96
2021/11/11 05:13:29;;;;;;;38.53;14.52;;;;;;;11.17;95.92;99357.56;6263693;23;20024;-94
2021/11/11 05:15:56;;;;;;;29.45;14.13;;;;;;;11.14;95.75;99370.91;6261243;23;20019;-96
2021/11/11 05:18:22;;;;;;;33.42;14.65;;;;;;;11.17;95.26;99362.00;6264806;22;20016;-95
2021/11/11 05:20:48;;;;;;;34.20;15.07;;;;;;;11.34;95.27;99393.59;6266739;22;20087;-93
2021/11/11 05:23:14;;;;;;;32.90;14.10;;;;;;;11.30;94.53;99380.38;6263975;23;20024;-93
2021/11/11 05:25:42;;;;;;;33.67;14.25;;;;;;;11.37;93.95;99385.56;6263777;22;20016;-95
2021/11/11 05:28:09;;;;;;;31.85;14.65;;;;;;;11.29;93.98;99383.06;6264847;22;20024;-94
2021/11/11 05:30:35;;;;;;;31.65;14.20;;;;;;;11.20;94.48;99373.47;6265363;22;20024;-94
2021/11/11 05:33:01;;;;;;;30.20;13.95;;;;;;;11.22;94.61;99378.78;6266088;22;20331;-95
2021/11/11 05:35:27;;;;;;;28.77;13.27;;;;;;;11.27;94.21;99385.72;6268008;22;20000;-95
2021/11/11 05:37:55;;;;;;;29.85;13.40;;;;;;;11.27;93.59;99384.88;6267706;22;20423;-96
2021/11/11 05:40:22;;;;;;;28.13;12.80;;;;;;;11.31;93.75;99391.88;6266045;22;20015;-95
2021/11/11 05:42:50;;;;;;;31.58;13.73;;;;;;;11.33;94.18;99397.19;6266679;23;20099;-96
2021/11/11 05:45:17;;;;;;;28.70;12.32;;;;;;;11.44;94.99;99419.16;6267024;23;20350;-95
2021/11/11 05:47:45;;;;;;;23.65;12.90;;;;;;;11.26;95.29;99384.00;6266097;22;20015;-95
2021/11/11 05:50:13;;;;;;;26.48;12.10;;;;;;;11.30;95.72;99396.34;6264180;22;20343;-95
2021/11/11 05:52:39;;;;;;;26.27;11.88;;;;;;;11.27;95.83;99399.03;6267411;23;20027;-94
2021/11/11 05:55:07;;;;;;;26.00;12.15;;;;;;;11.29;95.79;99401.69;6236372;23;20047;-95
2021/11/11 05:57:33;;;;;;;22.23;11.23;;;;;;;11.33;95.43;99399.84;6235430;23;20313;-96
2021/11/11 06:00:05;;;;;;;24.08;11.07;;;;;;;11.27;96.15;99390.19;6240082;23;20016;-96
2021/11/11 06:02:33;;;;;;;24.25;10.68;;;;;;;11.31;96.21;99391.88;6240007;23;20024;-96
2021/11/11 06:05:00;;;;;;;24.27;10.60;;;;;;;11.26;97.48;99389.31;6238993;23;20017;-96
2021/11/11 06:07:27;;;;;;;21.50;9.93;;;;;;;11.20;97.80;99394.75;6252824;23;20020;-96
2021/11/11 06:09:53;;;;;;;23.85;9.88;;;;;;;11.17;98.53;99378.88;6265923;23;20016;-96
2021/11/11 06:12:22;;;;;;;21.10;9.82;;;;;;;11.18;99.16;99383.25;6267419;23;20016;-96
2021/11/11 06:14:48;;;;;;;19.67;9.32;;;;;;;11.23;99.37;99385.84;6259828;23;20020;-96
2021/11/11 06:17:16;;;;;;;23.38;10.77;;;;;;;11.33;99.32;99403.38;6259795;23;20444;-94
2021/11/11 06:19:44;;;;;;;21.80;11.32;;;;;;;11.43;98.52;99396.97;6260002;23;20047;-94
2021/11/11 06:22:10;;;;;;;26.67;11.82;;;;;;;11.44;98.50;99412.03;6260956;23;20023;-94
2021/11/11 06:24:36;;;;;;;23.10;9.70;;;;;;;11.37;98.75;99402.41;6260028;23;20020;-91
2021/11/11 06:27:02;;;;;;;25.95;12.68;;;;;;;11.44;98.27;99438.66;6255882;23;20063;-94
2021/11/11 06:29:28;;;;;;;30.52;14.75;;;;;;;11.52;98.03;99450.03;6257279;23;20048;-95
2021/11/11 06:31:55;;;;;;;33.10;15.40;;;;;;;11.48;97.87;99451.00;6258084;22;20067;-94
2021/11/11 06:34:22;;;;;;;31.35;15.18;;;;;;;11.57;97.81;99473.06;6259289;23;20347;-94
2021/11/11 06:36:48;;;;;;;27.75;13.80;;;;;;;11.54;97.69;99473.09;6257788;22;20016;-95
2021/11/11 06:39:14;;;;;;;33.92;13.90;;;;;;;11.36;98.21;99448.56;6256001;23;20022;-94
2021/11/11 06:41:40;;;;;;;26.50;14.30;;;;;;;11.30;98.37;99441.59;6258424;23;20020;-94
2021/11/11 06:44:08;;;;;;;31.30;14.40;;;;;;;11.25;98.59;99446.13;6253382;23;20027;-95
2021/11/11 06:46:38;;;;;;;26.30;14.00;;;;;;;11.16;99.10;99443.63;6253817;23;20073;-95
2021/11/11 06:49:04;;;;;;;30.17;14.13;;;;;;;11.19;99.55;99462.25;6252556;23;20020;-96
2021/11/11 06:51:31;;;;;;;29.40;14.68;;;;;;;11.07;100.00;99451.81;6252854;23;20016;-95
2021/11/11 06:53:57;;;;;;;31.27;15.05;;;;;;;11.12;100.00;99470.34;6253063;23;20013;-95
2021/11/11 06:56:23;;;;;;;30.00;14.60;;;;;;;11.13;100.00;99469.47;6250619;23;20095;-93
2021/11/11 06:58:51;;;;;;;32.65;14.35;;;;;;;10.94;100.00;99443.16;6250441;23;20035;-92
2021/11/11 07:01:21;;;;;;;33.58;13.40;;;;;;;11.06;100.00;99469.56;6248545;23;20020;-93
2021/11/11 07:03:47;;;;;;;30.13;13.65;;;;;;;11.08;99.99;99469.50;6248238;23;20058;-94
2021/11/11 07:06:14;;;;;;;27.27;13.15;;;;;;;11.13;99.86;99474.78;6251176;23;20097;-93
2021/11/11 07:08:41;;;;;;;32.08;13.27;;;;;;;11.12;100.00;99470.34;6253154;23;20075;-94
2021/11/11 07:11:10;;;;;;;23.30;11.75;;;;;;;11.03;100.00;99437.66;6253024;23;20024;-94
2021/11/11 07:13:36;;;;;;;29.25;13.48;;;;;;;11.23;100.00;99453.28;6253457;23;20074;-94
2021/11/11 07:16:03;;;;;;;24.80;12.00;;;;;;;11.30;99.91;99448.72;6253088;23;20016;-94
2021/11/11 07:18:29;;;;;;;28.85;13.32;;;;;;;11.40;97.85;99449.41;6254619;23;20019;-93
2021/11/11 07:20:55;;;;;;;28.42;12.95;;;;;;;11.58;96.69;99475.69;6253740;23;20031;-93
2021/11/11 07:23:24;;;;;;;26.67;12.48;;;;;;;11.52;94.80;99459.84;6249971;23;20016;-95
2021/11/11 07:25:52;;;;;;;22.63;11.32;;;;;;;11.55;94.08;99454.44;6252548;23;20019;-94
2021/11/11 07:28:19;;;;;;;22.83;11.10;;;;;;;11.76;93.54;99484.22;6252711;23;20027;-95
2021/11/11 07:30:46;;;;;;;27.65;12.13;;;;;;;11.77;92.97;99481.50;6253792;23;20039;-94
2021/11/11 07:33:15;;;;;;;30.60;13.35;;;;;;;11.79;92.37;99476.16;6248435;23;20103;-94
2021/11/11 07:35:42;;;;;;;30.38;13.32;;;;;;;11.99;91.46;99495.31;6249140;22;20020;-94
2021/11/11 07:38:11;;;;;;;30.67;14.02;;;;;;;12.08;91.71;99496.91;6247884;23;20043;-94
2021/11/11 07:40:37;;;;;;;29.83;13.65;;;;;;;11.82;92.07;99478.75;6247700;23;20016;-94
2021/11/11 07:43:05;;;;;;;37.63;15.45;;;;;;;11.98;91.33;99498.88;6247693;23;20026;-93
2021/11/11 07:45:31;;;;;;;32.05;14.30;;;;;;;12.18;90.92;99498.44;6246327;23;20450;-93
2021/11/11 07:48:01;;;;;;;31.52;14.57;;;;;;;12.32;89.89;99496.38;6247571;23;20035;-93
2021/11/11 07:50:28;;;;;;;26.50;12.68;;;;;;;12.47;87.66;99488.91;6252495;23;20050;-94
2021/11/11 07:52:56;;;;;;;30.75;12.93;;;;;;;12.63;87.07;99487.66;6250584;23;20027;-94
2021/11/11 07:55:23;;;;;;;22.67;11.80;;;;;;;12.72;88.62;99490.06;6250105;23;20147;-94
2021/11/11 07:57:51;;;;;;;22.45;11.27;;;;;;;12.76;87.40;99464.22;6248307;23;20132;-93
2021/11/11 08:00:19;;;;;;;23.55;10.88;;;;;;;12.98;86.00;99461.88;6249003;23;20020;-95
2021/11/11 08:02:47;;;;;;;23.10;10.82;;;;;;;13.08;85.72;99449.16;6249084;23;20027;-95
2021/11/11 08:05:15;;;;;;;25.33;11.80;;;;;;;13.01;85.28;99432.44;6255201;23;20039;-96
2021/11/11 08:07:43;;;;;;;23.70;10.50;;;;;;;13.32;85.65;99445.88;6254845;23;20394;-94
2021/11/11 08:10:09;;;;;;;20.10;10.13;;;;;;;13.39;83.72;99422.53;6252167;23;20704;-95
2021/11/11 08:12:36;;;;;;;20.80;9.60;;;;;;;13.48;81.74;99418.72;6251388;23;20031;-94
2021/11/11 08:15:03;;;;;;;22.33;10.88;;;;;;;13.26;83.11;99389.91;6251708;23;20016;-95
2021/11/11 08:17:30;;;;;;;21.45;10.75;;;;;;;13.40;83.30;99402.88;6254117;23;20450;-96
2021/11/11 08:19:56;;;;;;;24.20;11.13;;;;;;;13.45;82.55;99387.63;6255393;23;20020;-96
2021/11/11 08:22:23;;;;;;;24.15;11.18;;;;;;;13.45;82.13;99397.44;6255334;23;20071;-96
2021/11/11 08:24:49;;;;;;;21.75;11.70;;;;;;;13.24;83.04;99390.88;6251675;23;20024;-96
2021/11/11 08:27:17;;;;;;;22.42;10.93;;;;;;;13.40;81.63;99402.03;6252067;23;20023;-95
2021/11/11 08:29:45;;;;;;;23.55;11.88;;;;;;;13.16;83.45;99412.44;6251739;23;20062;-95
2021/11/11 08:32:13;;;;;;;22.88;10.60;;;;;;;13.07;83.94;99392.19;6252915;23;20016;-95
2021/11/11 08:34:41;;;;;;;19.95;10.30;;;;;;;13.18;84.14;99409.72;6252860;23;20016;-96
2021/11/11 08:37:08;;;;;;;21.77;9.57;;;;;;;13.15;83.94;99402.69;6252605;23;20012;-95
2021/11/11 08:39:35;;;;;;;24.15;11.95;;;;;;;13.27;83.34;99418.38;6252601;23;20394;-95
2021/11/11 08:42:01;;;;;;;23.67;11.80;;;;;;;13.34;83.32;99413.78;6252447;23;20016;-95
2021/11/11 08:44:27;;;;;;;24.65;10.90;;;;;;;13.39;81.94;99402.97;6253775;23;20090;-95
2021/11/11 08:46:55;;;;;;;20.02;10.13;;;;;;;13.37;83.02;99413.66;6251289;23;20012;-96
2021/11/11 08:49:22;;;;;;;17.87;10.60;;;;;;;13.01;83.76;99373.69;6252151;23;20024;-96
2021/11/11 08:51:52;;;;;;;19.55;10.80;;;;;;;13.01;83.98;99397.72;6252423;23;20016;-94
2021/11/11 08:54:21;;;;;;;17.80;9.07;;;;;;;12.97;83.98;99377.38;6250070;23;20020;-95
2021/11/11 08:56:48;;;;;;;21.38;9.93;;;;;;;12.93;84.76;99373.91;6250998;23;20016;-96
2021/11/11 08:59:15;;;;;;;19.88;9.85;;;;;;;13.18;84.18;99385.69;6249621;23;20103;-95
2021/11/11 09:01:42;;;;;;;17.35;9.82;;;;;;;13.18;83.72;99369.66;6250243;23;20027;-95
2021/11/11 09:04:08;;;;;;;19.98;9.80;;;;;;;13.31;82.21;99365.75;6249587;23;20308;-95
2021/11/11 09:06:35;;;;;;;18.38;9.13;;;;;;;13.44;81.43;99385.84;6251236;23;20023;-96
2021/11/11 09:09:03;;;;;;;16.38;8.40;;;;;;;13.65;80.87;99394.19;6190714;23;20021;-95
2021/11/11 09:11:30;;;;;;;13.57;7.88;;;;;;;13.79;80.10;99385.75;6191547;23;20027;-95
2021/11/11 09:13:57;;;;;;;13.48;7.35;;;;;;;14.01;80.49;99402.91;6195159;23;20048;-96
2021/11/11 09:16:25;;;;;;;17.52;8.60;;;;;;;14.00;78.51;99373.53;6192015;23;20017;-96
2021/11/11 09:18:51;;;;;;;14.57;8.13;;;;;;;14.15;77.56;99386.41;6191005;23;20105;-96
2021/11/11 09:21:18;;;;;;;16.42;9.27;;;;;;;14.10;77.65;99372.31;6192749;23;20343;-94
2021/11/11 09:23:46;;;;;;;15.25;8.18;;;;;;;14.47;77.19;99397.88;6191511;23;20021;-93
2021/11/11 09:26:13;;;;;;;14.32;7.68;;;;;;;14.47;77.37;99357.72;6189037;23;20063;-94
2021/11/11 09:28:41;;;;;;;14.48;7.65;;;;;;;14.78;76.40;99381.69;6190054;23;20017;-93
2021/11/11 09:31:09;;;;;;;14.85;8.57;;;;;;;14.65;76.36;99366.97;6188821;23;20025;-95
2021/11/11 09:33:36;;;;;;;15.50;8.65;;;;;;;14.64;75.61;99357.16;6188706;23;20025;-95
2021/11/11 09:36:03;;;;;;;17.02;8.25;;;;;;;14.76;75.75;99362.13;6189215;23;20044;-93
2021/11/11 09:38:29;;;;;;;16.17;8.38;;;;;;;14.76;76.50;99376.38;6187370;23;20043;-93
2021/11/11 09:40:57;;;;;;;15.65;8.68;;;;;;;14.99;75.78;99380.94;6188333;23;20074;-93
2021/11/11 09:43:24;;;;;;;14.43;8.20;;;;;;;14.91;74.62;99348.19;6187968;23;20021;-93
2021/11/11 09:45:51;;;;;;;14.18;7.50;;;;;;;14.86;75.11;99341.25;6190276;23;20025;-94
2021/11/11 09:48:17;;;;;;;16.10;8.48;;;;;;;14.91;76.35;99360.72;6190797;23;20017;-94
2021/11/11 09:50:45;;;;;;;15.80;7.88;;;;;;;14.67;76.19;99336.53;6192532;23;20506;-95
2021/11/11 09:53:14;;;;;;;13.02;7.65;;;;;;;14.67;76.36;99333.00;6190967;23;20044;-95
2021/11/11 09:58:45;;;;;;;16.27;8.30;;;;;;;14.51;77.48;99352.22;5094487;27;20413;-93
2021/11/11 10:01:15;;;;;;;15.15;7.07;;;;;;;14.89;77.36;99359.88;5091134;28;20044;-94
2021/11/11 10:03:43;;;;;;;14.38;7.97;;;;;;;14.95;75.14;99352.50;5090439;28;20048;-93
2021/11/11 10:06:09;;;;;;;12.48;7.63;;;;;;;15.14;75.87;99343.81;5085085;28;20036;-96
2021/11/11 10:08:38;;;;;;;11.70;7.53;;;;;;;15.02;74.87;99337.09;5073278;28;20040;-95
2021/11/11 10:11:08;;;;;;;12.95;7.18;;;;;;;14.99;74.66;99324.69;5087024;28;20197;-94
2021/11/11 10:13:35;;;;;;;15.73;7.70;;;;;;;15.04;73.94;99345.06;5098341;28;20071;-94
2021/11/11 10:16:10;;;;;;;12.48;7.13;;;;;;;14.94;75.37;99347.19;5086659;28;20174;-95
2021/11/11 10:18:55;;;;;;;14.85;7.55;;;;;;;14.81;76.22;99344.06;5091599;28;20048;-95
2021/11/11 10:24:34;;;;;;;14.18;7.38;;;;;;;15.00;74.56;99357.69;5107076;27;20383;-94
2021/11/11 10:27:12;;;;;;;12.43;7.15;;;;;;;15.03;74.50;99333.50;5073410;28;20091;-94
2021/11/11 10:29:47;;;;;;;11.70;7.20;;;;;;;14.96;74.18;99319.47;5074045;28;20037;-93
2021/11/11 10:32:17;;;;;;;10.57;6.60;;;;;;;15.27;74.01;99330.84;5072519;28;20080;-93
2021/11/11 10:34:51;;;;;;;14.80;7.20;;;;;;;15.06;74.04;99321.78;5072229;28;20040;-94
2021/11/11 10:37:18;;;;;;;13.27;6.82;;;;;;;15.18;75.14;99332.06;5072877;28;20048;-94
2021/11/11 10:39:54;;;;;;;13.70;7.18;;;;;;;15.14;74.49;99307.19;5079407;28;20123;-94
2021/11/11 10:42:23;;;;;;;11.35;6.72;;;;;;;15.26;74.44;99318.38;5090954;28;20048;-93
2021/11/11 10:44:49;;;;;;;;;;;;;;;15.38;75.25;99324.16;5072139;28;20048;-94
2021/11/11 10:47:21;;;;;;;13.00;6.55;;;;;;;15.31;74.20;99302.97;5073511;28;19962;-93
2021/11/11 10:49:47;;;;;;;10.82;6.50;;;;;;;15.30;74.64;99280.69;5074927;28;20041;-94
2021/11/11 10:52:31;;;;;;;11.50;6.93;;;;;;;15.74;72.30;99296.91;5075873;28;20056;-95
2021/11/11 10:55:21;;;;;;;13.35;6.38;;;;;;;16.12;72.26;99294.44;5073584;28;20513;-95
2021/11/11 10:57:52;;;;;;;10.57;7.05;;;;;;;16.46;69.85;99290.38;5068608;28;20041;-95
2021/11/11 11:00:47;;;;;;;12.25;6.47;;;;;;;16.81;68.86;99310.34;5073654;28;20116;-95
2021/11/11 11:03:19;;;;;;;13.23;6.65;;;;;;;16.72;67.68;99278.50;5031906;28;20096;-94
2021/11/11 11:05:52;;;;;;;12.02;6.45;;;;;;;16.54;69.17;99296.25;5031725;28;20061;-94
2021/11/11 11:08:21;;;;;;;14.45;6.95;;;;;;;16.86;68.26;99287.78;5030090;28;20149;-94
2021/11/11 11:10:55;;;;;;;11.73;6.57;;;;;;;16.87;67.63;99262.63;5030984;28;20065;-95
2021/11/11 11:13:24;;;;;;;10.38;5.85;;;;;;;16.99;67.19;99281.78;5031294;28;20096;-95
2021/11/11 11:15:54;;;;;;;11.45;6.38;;;;;;;16.74;67.86;99298.09;5032284;28;20061;-95
2021/11/11 11:18:24;;;;;;;13.98;6.72;;;;;;;16.16;69.93;99271.06;5031657;28;20049;-95
2021/11/11 11:20:56;;;;;;;13.55;6.60;;;;;;;16.26;69.83;99263.47;5030676;28;20052;-95
2021/11/11 11:23:29;;;;;;;12.32;7.15;;;;;;;16.53;70.08;99282.91;5029684;28;20157;-95
2021/11/11 11:26:00;;;;;;;15.13;7.75;;;;;;;16.37;69.16;99261.19;5030042;28;20045;-94
2021/11/11 11:31:39;;;;;;;11.55;6.93;;;;;;;16.82;68.18;99257.47;5015266;28;20555;-95
2021/11/11 11:34:10;;;;;;;12.60;6.40;;;;;;;17.33;65.85;99266.81;5026883;28;20538;-95
2021/11/11 11:36:40;;;;;;;11.60;6.55;;;;;;;17.16;66.19;99229.09;5020868;28;20050;-95
2021/11/11 11:39:07;;;;;;;14.32;8.15;;;;;;;17.45;66.57;99242.00;5043621;28;20037;-94
2021/11/11 11:41:39;;;;;;;10.75;6.80;;;;;;;17.18;67.54;99221.81;5058914;28;20049;-96
2021/11/11 11:44:20;;;;;;;14.75;6.93;;;;;;;17.24;66.15;99224.22;5059609;28;20526;-95
2021/11/11 11:46:56;;;;;;;12.45;7.38;;;;;;;17.28;67.07;99228.50;5043997;28;20069;-95
2021/11/11 11:49:23;;;;;;;10.77;7.10;;;;;;;17.39;67.80;99247.69;5062316;28;20045;-96
2021/11/11 11:51:49;;;;;;;11.73;7.47;;;;;;;16.80;68.48;99237.88;5060682;28;20483;-93
2021/11/11 11:57:20;;;;;;;14.45;7.50;;;;;;;16.14;69.93;99219.28;5092641;27;20366;-94
2021/11/11 11:59:52;;;;;;;11.98;7.18;;;;;;;16.12;70.55;99200.53;5095274;28;20498;-93
2021/11/11 12:02:25;;;;;;;12.85;6.70;;;;;;;16.18;69.38;99186.88;5095199;28;20047;-94
2021/11/11 12:29:50;;;;;;;11.63;5.78;;;;;;;16.90;66.90;99230.28;5093808;27;20381;-94
2021/11/11 12:41:28;;;;;;;9.93;5.95;;;;;;;16.21;69.68;99200.13;5115469;27;20377;-94
2021/11/11 12:44:13;;;;;;;10.10;6.50;;;;;;;16.16;69.55;99214.72;5115549;28;20417;-94
2021/11/11 12:47:04;;;;;;;;;;;;;;;;;;;;;
2021/11/11 12:49:39;;;;;;;9.95;5.85;;;;;;;16.38;69.19;99201.22;5113642;28;20490;-93
2021/11/11 12:52:25;;;;;;;11.90;6.90;;;;;;;16.45;69.22;99183.91;5113954;28;20036;-95
2021/11/11 12:55:14;;;;;;;10.52;6.63;;;;;;;16.46;70.37;99174.03;5093245;28;20044;-94
2021/11/11 12:58:05;;;;;;;11.10;6.18;;;;;;;16.61;68.64;99182.28;5112099;28;20145;-92
2021/11/11 13:00:38;;;;;;;9.85;6.07;;;;;;;16.68;67.56;99169.47;5112312;28;20127;-94
2021/11/11 13:03:06;;;;;;;10.85;5.85;;;;;;;16.86;67.58;99158.84;5112344;28;20042;-94
2021/11/11 13:05:54;;;;;;;11.07;6.70;;;;;;;16.82;67.71;99182.28;5111800;28;20040;-93
2021/11/11 13:08:23;;;;;;;13.45;6.32;;;;;;;16.75;67.67;99160.16;5110896;28;20063;-93
2021/11/11 13:10:53;;;;;;;;;;;;;;;16.93;67.40;99185.34;5113671;28;20040;-95
2021/11/11 13:13:25;;;;;;;11.15;6.22;;;;;;;16.71;68.63;99166.63;5113379;28;19916;-94
2021/11/11 13:16:12;;;;;;;13.02;6.63;;;;;;;16.93;67.14;99176.41;5115802;28;20091;-94
2021/11/11 13:18:46;;;;;;;9.95;6.03;;;;;;;16.63;67.87;99179.50;5116256;28;20044;-95
2021/11/11 13:21:16;;;;;;;9.25;5.45;;;;;;;16.50;68.04;99160.41;5097093;28;20048;-94
2021/11/11 13:23:50;;;;;;;13.82;6.57;;;;;;;16.58;67.00;99173.50;5111630;28;20054;-94
2021/11/11 16:02:06;;;;;;;13.52;8.20;;;;;;;13.28;80.29;99210.91;5187771;27;20374;-95
2021/11/11 16:20:03;;;;;;;13.70;7.50;;;;;;;13.19;80.56;99200.53;5155033;27;20378;-94
2021/11/11 16:28:22;;;;;;;13.50;7.43;;;;;;;13.09;81.31;99202.59;5105639;27;20126;-92